createdAt,value
2022-08-10T00:00:55.690Z,102281.44
2022-08-10T00:03:24.716Z,102285.19
2022-08-10T00:05:54.781Z,102274.66
2022-08-10T00:08:24.948Z,102278.25
2022-08-10T00:10:53.022Z,102275.00
2022-08-10T00:13:20.858Z,102267.25
2022-08-10T00:15:53.637Z,102268.84
2022-08-10T00:18:35.223Z,102271.06
2022-08-10T00:21:04.802Z,102273.91
2022-08-10T00:23:32.442Z,102269.47
2022-08-10T00:26:00.317Z,102269.53
2022-08-10T00:28:27.947Z,102267.97
2022-08-10T00:30:55.595Z,102266.09
2022-08-10T00:33:24.728Z,102262.88
2022-08-10T00:35:52.780Z,102267.22
2022-08-10T00:38:20.803Z,102260.94
2022-08-10T00:40:48.446Z,102261.22
2022-08-10T00:43:23.599Z,102259.50
2022-08-10T00:45:59.859Z,102258.03
2022-08-10T00:48:30.109Z,102256.47
2022-08-10T00:50:58.815Z,102273.81
2022-08-10T00:53:26.535Z,102256.59
2022-08-10T00:57:12.603Z,102258.31
2022-08-10T00:58:41.803Z,102269.03
2022-08-10T01:01:23.505Z,102263.72
2022-08-10T01:04:36.368Z,102258.31
2022-08-10T01:06:51.695Z,102269.03
2022-08-10T01:09:24.245Z,102261.13
2022-08-10T01:12:40.232Z,102286.69
2022-08-10T01:14:51.498Z,102262.75
2022-08-10T01:17:23.966Z,102251.53
2022-08-10T01:20:30.268Z,102255.91
2022-08-10T01:23:26.922Z,102253.53
2022-08-10T01:26:10.506Z,102249.94
2022-08-10T01:28:47.503Z,102253.38
2022-08-10T01:31:21.413Z,102258.81
2022-08-10T01:33:59.089Z,102257.34
2022-08-10T01:36:32.234Z,102245.94
2022-08-10T01:39:03.778Z,102248.59
2022-08-10T01:41:46.143Z,102248.72
2022-08-10T01:44:16.563Z,102249.59
2022-08-10T01:46:56.918Z,102252.19
2022-08-10T01:49:25.072Z,102267.59
2022-08-10T01:51:54.521Z,102280.78
2022-08-10T01:54:24.127Z,102283.38
2022-08-10T01:56:54.323Z,102276.94
2022-08-10T01:59:24.955Z,102286.09
2022-08-10T02:01:57.169Z,102283.69
2022-08-10T02:04:26.564Z,102287.28
2022-08-10T02:06:55.462Z,102291.91
2022-08-10T02:09:26.479Z,102305.69
2022-08-10T02:12:07.336Z,102303.31
2022-08-10T02:14:38.410Z,102294.38
2022-08-10T02:17:58.232Z,102298.69
2022-08-10T02:19:59.998Z,102293.75
2022-08-10T02:22:38.260Z,102291.72
2022-08-10T02:25:08.571Z,102299.06
2022-08-10T02:27:37.446Z,102318.28
2022-08-10T02:30:07.052Z,102316.81
2022-08-10T02:32:38.483Z,102304.38
2022-08-10T02:35:13.976Z,102318.78
2022-08-10T02:37:51.442Z,102339.13
2022-08-10T02:45:02.153Z,102315.59
2022-08-10T02:45:21.688Z,102329.50
2022-08-10T02:46:03.328Z,102323.34
2022-08-10T02:48:38.910Z,102305.00
2022-08-10T02:51:11.319Z,102318.19
2022-08-10T02:53:54.862Z,102337.09
2022-08-10T02:56:29.844Z,102325.56
2022-08-10T02:59:00.300Z,102347.69
2022-08-10T03:01:32.771Z,102349.72
2022-08-10T03:04:04.229Z,102342.69
2022-08-10T03:06:35.978Z,102346.16
2022-08-10T03:09:05.425Z,102339.13
2022-08-10T03:12:37.428Z,102354.09
2022-08-10T03:14:23.084Z,102356.00
2022-08-10T03:16:51.508Z,102366.81
2022-08-10T03:20:33.337Z,102350.97
2022-08-10T03:22:09.735Z,102352.69
2022-08-10T03:24:37.747Z,102368.03
2022-08-10T03:27:06.336Z,102352.69
2022-08-10T03:30:29.866Z,102368.59
2022-08-10T03:32:23.124Z,102373.19
2022-08-10T03:34:52.627Z,102355.47
2022-08-10T03:37:20.458Z,102368.03
2022-08-10T03:39:48.218Z,102377.81
2022-08-10T03:42:16.400Z,102387.72
2022-08-10T03:44:48.657Z,102391.91
2022-08-10T03:47:18.857Z,102379.72
2022-08-10T03:49:49.028Z,102389.56
2022-08-10T03:52:19.284Z,102380.56
2022-08-10T03:54:51.468Z,102391.16
2022-08-10T03:57:19.426Z,102390.53
2022-08-10T03:59:47.522Z,102388.69
2022-08-10T04:02:46.582Z,102403.59
2022-08-10T04:05:03.322Z,102404.56
2022-08-10T04:07:32.392Z,102411.31
2022-08-10T04:09:59.995Z,102402.63
2022-08-10T04:12:27.728Z,102396.75
2022-08-10T04:14:55.380Z,102416.03
2022-08-10T04:17:57.459Z,102410.78
2022-08-10T04:20:18.000Z,102430.25
2022-08-10T04:22:49.772Z,102428.69
2022-08-10T04:25:17.775Z,102424.47
2022-08-10T04:27:46.435Z,102430.63
2022-08-10T04:30:14.235Z,102423.63
2022-08-10T04:32:42.451Z,102432.47
2022-08-10T04:35:11.540Z,102441.44
2022-08-10T04:37:46.916Z,102440.31
2022-08-10T04:40:28.891Z,102450.19
2022-08-10T04:43:02.252Z,102452.03
2022-08-10T04:45:49.043Z,102456.41
2022-08-10T04:48:40.781Z,102459.09
2022-08-10T04:51:10.956Z,102465.97
2022-08-10T04:54:04.441Z,102429.88
2022-08-10T04:56:34.731Z,102464.16
2022-08-10T04:59:02.361Z,102466.81
2022-08-10T05:02:21.954Z,102480.00
2022-08-10T05:04:35.447Z,102472.53
2022-08-10T05:07:06.880Z,102485.47
2022-08-10T05:10:01.082Z,102479.25
2022-08-10T05:12:23.792Z,102461.47
2022-08-10T05:14:52.175Z,102477.88
2022-08-10T05:17:20.853Z,102477.13
2022-08-10T05:20:03.454Z,102491.72
2022-08-10T05:22:37.309Z,102493.28
2022-08-10T05:25:06.846Z,102463.91
2022-08-10T05:27:35.888Z,102497.44
2022-08-10T05:30:04.471Z,102489.25
2022-08-10T05:32:34.441Z,102506.44
2022-08-10T05:35:20.645Z,102526.47
2022-08-10T05:38:11.790Z,102507.91
2022-08-10T05:40:37.624Z,102492.44
2022-08-10T05:43:06.691Z,102501.31
2022-08-10T05:45:34.333Z,102491.00
2022-08-10T05:48:41.801Z,102487.97
2022-08-10T05:51:09.859Z,102488.31
2022-08-10T05:53:59.843Z,102487.63
2022-08-10T05:56:26.330Z,102480.66
2022-08-10T05:58:55.448Z,102482.63
2022-08-10T06:01:25.002Z,102480.31
2022-08-10T06:03:58.439Z,102475.56
2022-08-10T06:06:27.152Z,102478.81
2022-08-10T06:08:55.059Z,102478.63
2022-08-10T06:12:26.937Z,102466.72
2022-08-10T06:14:31.351Z,102469.63
2022-08-10T06:17:01.073Z,102469.94
2022-08-10T06:19:29.213Z,102460.25
2022-08-10T06:22:01.264Z,102455.06
2022-08-10T06:24:31.105Z,102453.41
2022-08-10T06:26:59.079Z,102454.38
2022-08-10T06:29:29.253Z,102448.13
2022-08-10T06:31:57.004Z,102777.78
2022-08-10T06:34:28.446Z,102546.91
2022-08-10T06:36:59.478Z,102354.34
2022-08-10T06:39:36.310Z,102347.78
2022-08-10T06:42:15.865Z,102344.31
2022-08-10T06:44:54.483Z,102333.41
2022-08-10T06:47:25.472Z,102327.88
2022-08-10T06:49:59.874Z,102331.13
2022-08-10T06:52:29.761Z,102321.31
2022-08-10T06:54:58.568Z,102324.50
2022-08-10T06:57:29.440Z,102327.38
2022-08-10T07:00:01.046Z,102333.06
2022-08-10T07:02:36.846Z,102327.19
2022-08-10T07:05:06.615Z,102334.44
2022-08-10T07:07:37.562Z,102327.66
2022-08-10T07:10:06.051Z,102345.97
2022-08-10T07:12:35.439Z,102340.28
2022-08-10T07:15:05.579Z,102334.09
2022-08-10T07:17:38.796Z,102326.84
2022-08-10T07:20:09.722Z,102327.13
2022-08-10T07:23:01.413Z,102325.56
2022-08-10T07:25:27.471Z,102327.69
2022-08-10T07:27:58.781Z,102337.91
2022-08-10T07:30:31.464Z,102334.34
2022-08-10T07:33:00.174Z,102337.41
2022-08-10T07:35:32.056Z,102335.84
2022-08-10T07:38:05.150Z,102331.88
2022-08-10T07:40:33.937Z,102339.66
2022-08-10T07:43:02.532Z,102331.25
2022-08-10T07:45:33.143Z,102329.19
2022-08-10T07:48:07.163Z,102331.13
2022-08-10T07:50:37.722Z,102328.88
2022-08-10T07:53:05.973Z,102340.69
2022-08-10T07:56:01.869Z,102336.72
2022-08-10T07:58:23.127Z,102344.72
2022-08-10T08:00:53.392Z,102341.28
2022-08-10T08:03:22.415Z,102350.22
2022-08-10T08:05:57.657Z,102338.91
2022-08-10T08:08:31.834Z,102336.91
2022-08-10T08:11:00.020Z,102341.47
2022-08-10T08:13:27.916Z,102346.38
2022-08-10T08:16:18.225Z,102346.13
2022-08-10T08:19:03.943Z,102346.69
2022-08-10T08:24:10.565Z,102346.34
2022-08-10T08:24:32.644Z,102345.94
2022-08-10T08:27:02.373Z,102338.00
2022-08-10T08:29:30.600Z,102355.66
2022-08-10T08:32:02.455Z,102350.28
2022-08-10T08:34:31.468Z,102347.72
2022-08-10T08:37:00.672Z,102356.38
2022-08-10T08:39:28.384Z,102348.47
2022-08-10T08:42:09.663Z,102346.97
2022-08-10T08:44:49.141Z,102353.13
2022-08-10T08:48:04.609Z,102351.25
2022-08-10T08:50:35.636Z,102349.81
2022-08-10T08:53:21.585Z,102347.88
2022-08-10T08:56:06.395Z,102355.38
2022-08-10T08:58:53.708Z,102352.16
2022-08-10T09:01:38.290Z,102354.97
2022-08-10T09:04:46.828Z,102354.28
2022-08-10T09:08:00.300Z,102344.13
2022-08-10T09:10:39.916Z,102344.78
2022-08-10T09:13:11.575Z,102335.94
2022-08-10T09:15:42.266Z,102338.44
2022-08-10T09:18:15.022Z,102338.31
2022-08-10T09:20:49.165Z,102335.13
2022-08-10T09:24:05.267Z,102329.63
2022-08-10T09:26:15.912Z,102336.06
2022-08-10T09:28:44.265Z,102322.38
2022-08-10T09:31:28.770Z,102325.28
2022-08-10T09:36:28.094Z,102318.22
2022-08-10T09:37:02.108Z,102326.66
2022-08-10T09:40:06.965Z,102313.78
2022-08-10T09:42:29.956Z,102325.97
2022-08-10T09:45:05.223Z,102311.59
2022-08-10T09:48:00.844Z,102310.13
2022-08-10T09:50:50.082Z,102312.78
2022-08-10T09:53:25.770Z,102302.31
2022-08-10T09:56:19.070Z,102299.41
2022-08-10T09:58:51.712Z,102296.47
2022-08-10T10:02:02.417Z,102291.78
2022-08-10T10:04:40.465Z,102287.59
2022-08-10T10:07:10.840Z,102286.34
2022-08-10T10:09:46.866Z,102284.44
2022-08-10T10:12:22.605Z,102280.91
2022-08-10T10:15:24.462Z,102270.50
2022-08-10T10:18:15.268Z,102278.84
2022-08-10T10:20:47.420Z,102265.47
2022-08-10T10:23:19.254Z,102267.31
2022-08-10T10:25:55.438Z,102251.56
2022-08-10T10:29:11.341Z,102256.28
2022-08-10T10:31:28.875Z,102251.69
2022-08-10T10:34:15.519Z,102248.53
2022-08-10T10:36:45.221Z,102248.16
2022-08-10T10:39:14.890Z,102270.97
2022-08-10T10:41:55.896Z,102246.06
2022-08-10T10:44:42.323Z,102245.41
2022-08-10T10:47:29.508Z,102226.84
2022-08-10T10:50:05.255Z,102228.00
2022-08-10T10:52:41.999Z,102232.25
2022-08-10T10:55:16.398Z,102229.69
2022-08-10T10:58:00.968Z,102229.13
2022-08-10T11:00:38.573Z,102214.50
2022-08-10T11:03:35.812Z,102221.47
2022-08-10T11:06:11.387Z,102215.22
2022-08-10T11:08:44.116Z,102210.66
2022-08-10T11:12:01.184Z,102206.97
2022-08-10T11:14:25.129Z,102199.31
2022-08-10T11:17:01.704Z,102202.44
2022-08-10T11:20:02.036Z,102198.88
2022-08-10T11:22:31.431Z,102197.03
2022-08-10T11:25:11.175Z,102189.91
2022-08-10T11:27:44.075Z,102190.97
2022-08-10T11:30:15.044Z,102190.59
2022-08-10T11:32:48.330Z,102186.59
2022-08-10T11:35:23.805Z,102187.44
2022-08-10T11:38:34.380Z,102183.72
2022-08-10T11:40:52.216Z,102177.09
2022-08-10T11:43:22.603Z,102189.50
2022-08-10T11:45:56.267Z,102185.91
2022-08-10T11:48:54.289Z,102174.78
2022-08-10T11:51:26.492Z,102171.88
2022-08-10T11:53:58.993Z,102169.94
2022-08-10T11:56:30.838Z,102163.22
2022-08-10T11:59:17.036Z,102173.69
2022-08-10T12:01:48.187Z,102171.38
2022-08-10T12:04:16.476Z,102163.25
2022-08-10T12:07:00.320Z,102162.97
2022-08-10T12:10:10.417Z,102165.63
2022-08-10T12:12:17.280Z,102154.44
2022-08-10T12:14:49.703Z,102146.81
2022-08-10T12:17:23.312Z,102142.34
2022-08-10T12:20:02.635Z,102151.50
2022-08-10T12:22:34.682Z,102140.75
2022-08-10T12:25:05.494Z,102139.94
2022-08-10T12:27:39.862Z,102139.16
2022-08-10T12:30:09.572Z,102140.41
2022-08-10T12:32:43.320Z,102140.63
2022-08-10T12:35:21.989Z,102122.34
2022-08-10T12:38:04.133Z,102116.78
2022-08-10T12:40:36.435Z,102121.25
2022-08-10T12:43:12.957Z,102109.91
2022-08-10T12:46:06.739Z,102110.38
2022-08-10T12:48:38.708Z,102112.53
2022-08-10T12:51:09.106Z,102106.69
2022-08-10T12:53:42.908Z,102101.25
2022-08-10T12:56:10.814Z,102112.84
2022-08-10T12:58:59.274Z,102106.41
2022-08-10T13:01:30.449Z,102109.88
2022-08-10T13:04:26.799Z,102102.72
2022-08-10T13:06:54.647Z,102088.53
2022-08-10T13:09:23.061Z,102101.25
2022-08-10T13:12:36.231Z,102081.56
2022-08-10T13:14:49.287Z,102088.41
2022-08-10T13:17:23.157Z,102080.94
2022-08-10T13:19:55.085Z,102089.28
2022-08-10T13:22:26.358Z,102060.97
2022-08-10T13:24:56.331Z,102065.50
2022-08-10T13:28:01.389Z,102062.22
2022-08-10T13:30:15.560Z,102058.84
2022-08-10T13:32:49.344Z,102053.97
2022-08-10T13:35:58.721Z,102051.09
2022-08-10T13:38:30.787Z,102050.41
2022-08-10T13:40:58.884Z,102054.56
2022-08-10T13:43:27.165Z,102046.72
2022-08-10T13:45:56.018Z,102041.72
2022-08-10T13:48:24.661Z,102043.84
2022-08-10T13:50:58.261Z,102044.47
2022-08-10T13:53:31.155Z,102037.91
2022-08-10T13:55:59.102Z,102027.00
2022-08-10T13:58:30.089Z,102034.16
2022-08-10T14:00:59.247Z,102031.03
2022-08-10T14:03:27.201Z,102023.84
2022-08-10T14:05:57.411Z,102025.00
2022-08-10T14:08:26.826Z,102017.38
2022-08-10T14:11:05.396Z,102024.13
2022-08-10T14:13:43.917Z,102016.81
2022-08-10T14:16:12.302Z,102020.84
2022-08-10T14:18:42.108Z,102014.25
2022-08-10T14:21:11.593Z,102003.06
2022-08-10T14:23:48.611Z,102006.59
2022-08-10T14:26:23.120Z,102014.38
2022-08-10T14:28:55.618Z,101995.91
2022-08-10T14:31:25.000Z,102003.59
2022-08-10T14:33:55.569Z,102027.59
2022-08-10T14:36:31.827Z,102015.78
2022-08-10T14:38:59.844Z,102005.88
2022-08-10T14:42:03.073Z,102007.00
2022-08-10T14:44:18.288Z,102000.88
2022-08-10T14:46:51.546Z,101990.94
2022-08-10T14:49:26.329Z,101998.31
2022-08-10T14:52:00.569Z,102000.66
2022-08-10T14:54:29.913Z,101983.63
2022-08-10T14:56:58.710Z,101996.75
2022-08-10T14:59:45.931Z,101980.78
2022-08-10T15:02:40.805Z,101981.53
2022-08-10T15:05:09.127Z,101979.84
2022-08-10T15:07:38.942Z,101982.44
2022-08-10T15:10:08.203Z,101979.25
2022-08-10T15:12:36.977Z,101980.44
2022-08-10T15:15:08.571Z,101985.41
2022-08-10T15:17:39.477Z,101979.81
2022-08-10T15:20:14.713Z,101985.84
2022-08-10T15:22:47.469Z,101981.97
2022-08-10T15:25:24.481Z,101980.50
2022-08-10T15:27:56.121Z,101972.69
2022-08-10T15:30:31.421Z,101978.63
2022-08-10T15:33:21.478Z,101969.34
2022-08-10T15:36:24.949Z,101969.00
2022-08-10T15:38:59.761Z,101967.34
2022-08-10T15:41:57.826Z,101972.06
2022-08-10T15:44:36.540Z,101962.47
2022-08-10T15:47:07.116Z,101950.47
2022-08-10T15:49:37.564Z,101950.13
2022-08-10T15:52:39.948Z,101953.34
2022-08-10T15:55:44.143Z,101938.16
2022-08-10T15:58:05.913Z,101939.28
2022-08-10T16:00:34.825Z,101947.53
2022-08-10T16:03:08.825Z,101941.16
2022-08-10T16:06:02.636Z,101942.75
2022-08-10T16:08:37.607Z,101939.44
2022-08-10T16:11:37.916Z,101942.84
2022-08-10T16:14:16.582Z,101946.16
2022-08-10T16:16:48.175Z,101939.72
2022-08-10T16:19:24.010Z,102010.66
2022-08-10T16:21:57.154Z,101965.88
2022-08-10T16:24:25.743Z,101961.84
2022-08-10T16:26:55.596Z,101958.13
2022-08-10T16:29:25.546Z,101953.28
2022-08-10T16:31:55.907Z,101937.16
2022-08-10T16:34:24.783Z,101948.25
2022-08-10T16:36:54.866Z,101944.50
2022-08-10T16:39:56.959Z,101943.34
2022-08-10T16:42:19.115Z,101933.63
2022-08-10T16:44:52.477Z,101931.97
2022-08-10T16:47:27.364Z,101930.16
2022-08-10T16:49:56.464Z,101923.28
2022-08-10T16:52:25.031Z,101920.94
2022-08-10T16:54:53.920Z,101921.47
2022-08-10T16:57:24.196Z,101919.25
2022-08-10T16:59:54.941Z,101921.03
2022-08-10T17:02:24.279Z,101913.94
2022-08-10T17:04:52.943Z,101913.56
2022-08-10T17:07:30.650Z,101915.63
2022-08-10T17:10:07.567Z,101909.63
2022-08-10T17:12:40.293Z,101907.56
2022-08-10T17:15:11.730Z,101902.38
2022-08-10T17:17:46.263Z,101891.88
2022-08-10T17:20:30.578Z,101896.63
2022-08-10T17:23:02.625Z,101905.31
2022-08-10T17:25:48.709Z,101892.94
2022-08-10T17:28:32.977Z,101888.50
2022-08-10T17:31:23.518Z,101893.13
2022-08-10T17:33:57.034Z,101886.78
2022-08-10T17:36:26.279Z,101889.16
2022-08-10T17:38:54.100Z,101886.16
2022-08-10T17:41:25.247Z,101885.47
2022-08-10T17:44:02.571Z,101887.84
2022-08-10T17:46:33.646Z,101887.13
2022-08-10T17:49:06.676Z,101880.16
2022-08-10T17:51:35.037Z,101880.97
2022-08-10T17:54:06.929Z,101886.38
2022-08-10T17:56:35.664Z,101876.03
2022-08-10T17:59:17.278Z,101870.63
2022-08-10T18:02:01.276Z,101877.88
2022-08-10T18:04:41.395Z,101880.16
2022-08-10T18:07:11.400Z,101887.00
2022-08-10T18:09:41.716Z,101877.34
2022-08-10T18:12:18.375Z,101876.88
2022-08-10T18:14:48.579Z,101884.69
2022-08-10T18:17:19.575Z,101891.09
2022-08-10T18:19:48.396Z,101884.28
2022-08-10T18:22:17.159Z,101880.19
2022-08-10T18:24:45.454Z,101883.91
2022-08-10T18:27:14.439Z,101883.59
2022-08-10T18:29:45.166Z,101873.59
2022-08-10T18:32:15.803Z,101882.38
2022-08-10T18:34:44.048Z,101879.97
2022-08-10T18:37:20.753Z,101882.44
2022-08-10T18:39:50.011Z,101886.47
2022-08-10T18:42:20.997Z,101876.13
2022-08-10T18:44:52.964Z,101889.81
2022-08-10T18:47:30.226Z,101881.53
2022-08-10T18:50:01.128Z,101879.72
2022-08-10T18:52:31.872Z,101880.88
2022-08-10T18:55:14.294Z,101883.13
2022-08-10T18:57:51.871Z,101882.72
2022-08-10T19:00:20.298Z,101880.34
2022-08-10T19:03:12.258Z,101880.91
2022-08-10T19:05:58.587Z,101876.09
2022-08-10T19:08:49.120Z,101883.56
2022-08-10T19:11:24.532Z,101888.19
2022-08-10T19:13:59.976Z,101886.88
2022-08-10T19:16:38.836Z,101893.94
2022-08-10T19:19:26.923Z,101890.72
2022-08-10T19:21:59.161Z,101890.56
2022-08-10T19:24:29.176Z,101882.78
2022-08-10T19:27:03.579Z,101887.81
2022-08-10T19:30:08.342Z,101883.44
2022-08-10T19:32:30.395Z,101887.91
2022-08-10T19:35:04.642Z,101880.13
2022-08-10T19:37:38.159Z,101881.84
2022-08-10T19:40:15.855Z,101885.06
2022-08-10T19:42:49.731Z,101883.63
2022-08-10T19:45:59.128Z,101875.94
2022-08-10T19:48:13.133Z,101894.34
2022-08-10T19:50:45.918Z,101879.44
2022-08-10T19:53:24.966Z,101872.38
2022-08-10T19:56:01.906Z,101878.09
2022-08-10T19:58:49.624Z,101882.50
2022-08-10T20:01:18.117Z,101892.41
2022-08-10T20:03:50.345Z,101882.16
2022-08-10T20:06:23.000Z,101881.78
2022-08-10T20:08:56.541Z,101881.09
2022-08-10T20:11:44.835Z,101884.13
2022-08-10T20:14:22.211Z,101886.31
2022-08-10T20:16:52.597Z,101887.53
2022-08-10T20:19:54.062Z,101885.09
2022-08-10T20:22:29.327Z,101884.56
2022-08-10T20:25:01.534Z,101881.50
2022-08-10T20:28:06.774Z,101880.53
2022-08-10T20:30:22.872Z,101891.78
2022-08-10T20:32:54.576Z,101892.56
2022-08-10T20:35:26.436Z,101885.78
2022-08-10T20:38:03.576Z,101896.38
2022-08-10T20:40:40.374Z,101901.16
2022-08-10T20:43:17.002Z,101891.53
2022-08-10T20:46:07.414Z,101882.91
2022-08-10T20:48:39.187Z,101888.47
2022-08-10T20:51:09.604Z,101899.47
2022-08-10T20:53:43.621Z,101897.34
2022-08-10T20:56:16.526Z,101896.00
2022-08-10T20:58:59.734Z,101890.28
2022-08-10T21:02:07.330Z,101902.31
2022-08-10T21:04:44.939Z,101894.66
2022-08-10T21:07:50.557Z,101893.81
2022-08-10T21:10:31.828Z,101901.34
2022-08-10T21:13:10.401Z,101889.41
2022-08-10T21:15:59.445Z,101899.34
2022-08-10T21:18:45.056Z,101899.31
2022-08-10T21:21:37.733Z,101900.13
2022-08-10T21:24:13.535Z,101907.53
2022-08-10T21:26:51.221Z,101911.53
2022-08-10T21:29:39.809Z,101900.72
2022-08-10T21:32:18.460Z,101905.25
2022-08-10T21:35:01.056Z,101908.28
2022-08-10T21:37:39.732Z,101908.97
2022-08-10T21:40:34.656Z,101904.47
2022-08-10T21:43:45.937Z,101902.78
2022-08-10T21:46:38.601Z,101902.41
2022-08-10T21:49:53.142Z,101899.22
2022-08-10T21:52:43.260Z,101902.66
2022-08-10T21:55:56.963Z,101909.09
2022-08-10T21:58:49.350Z,101907.78
2022-08-10T22:01:44.235Z,101910.41
2022-08-10T22:04:29.691Z,101909.31
2022-08-10T22:07:18.111Z,101917.91
2022-08-10T22:10:07.391Z,101903.50
2022-08-10T22:12:57.087Z,101902.06
2022-08-10T22:16:10.096Z,101903.41
2022-08-10T22:19:01.493Z,101900.47
2022-08-10T22:21:58.915Z,101898.25
2022-08-10T22:24:51.296Z,101898.88
2022-08-10T22:27:48.128Z,101905.28
2022-08-10T22:30:35.029Z,101902.31
2022-08-10T22:33:35.658Z,101898.25
2022-08-10T22:36:43.779Z,101893.13
2022-08-10T22:40:12.562Z,101889.81
2022-08-10T22:42:58.785Z,101890.78
2022-08-10T22:45:53.978Z,101888.53
2022-08-10T22:48:40.534Z,101888.22
2022-08-10T22:51:12.440Z,101891.22
2022-08-10T22:54:00.734Z,101878.59
2022-08-10T22:56:46.023Z,101874.63
2022-08-10T22:59:14.447Z,101883.16
2022-08-10T23:02:08.149Z,101880.38
2022-08-10T23:04:44.745Z,101881.97
2022-08-10T23:07:20.496Z,101875.94
2022-08-10T23:09:52.873Z,101867.41
2022-08-10T23:12:24.965Z,101877.97
2022-08-10T23:15:13.520Z,101872.00
2022-08-10T23:18:00.656Z,101872.53
2022-08-10T23:20:31.507Z,101874.03
2022-08-10T23:23:08.934Z,101870.38
2022-08-10T23:25:43.764Z,101860.97
2022-08-10T23:28:39.364Z,101862.47
2022-08-10T23:31:14.442Z,101861.97
2022-08-10T23:33:42.500Z,101865.00
2022-08-10T23:36:33.955Z,101858.72
2022-08-10T23:39:26.770Z,101854.28
2022-08-10T23:41:55.736Z,101865.38
2022-08-10T23:44:23.680Z,101861.97
2022-08-10T23:46:53.459Z,101859.81
2022-08-10T23:49:21.151Z,101854.91
2022-08-10T23:51:54.920Z,101847.22
2022-08-10T23:54:25.190Z,101862.31
2022-08-10T23:57:00.909Z,101860.16
2022-08-10T23:59:31.637Z,101860.56
